Time;durP1;ratioP1;P1;durP2;ratioP2;P2;SDS_P1;SDS_P2;PMS_P1;PMS_P2;Temp;Humidity;BMP_temperature;BMP_pressure;BME280_temperature;BME280_humidity;BME280_pressure;Samples;Min_cycle;Max_cycle;Signal;HPM_P1;HPM_P2
2023/06/27 00:01:04;;;;;;;7.20;1.60;;;14.90;99.90;;;14.34;100.00;102055.72;4186239;28;20029;-76
2023/06/27 00:03:05;;;;;;;4.05;1.60;;;14.90;99.90;;;14.30;100.00;102054.34;4162738;28;20034;-76
2023/06/27 00:05:07;;;;;;;5.00;1.75;;;14.80;99.90;;;14.29;100.00;102057.13;4168626;28;20031;-76
2023/06/27 00:07:10;;;;;;;3.58;1.70;;;14.80;99.90;;;14.28;100.00;102061.59;4168109;28;20029;-76
2023/06/27 00:09:11;;;;;;;4.53;1.70;;;14.80;99.90;;;14.30;100.00;102070.28;4168341;28;20508;-76
2023/06/27 00:11:12;;;;;;;5.55;1.90;;;14.80;99.90;;;14.23;100.00;102058.56;4186011;28;20032;-76
2023/06/27 00:13:15;;;;;;;4.30;1.65;;;14.80;99.90;;;14.25;100.00;102061.91;4201527;28;20033;-76
2023/06/27 00:15:18;;;;;;;4.53;1.85;;;14.70;99.90;;;14.23;100.00;102063.03;4168595;28;20586;-76
2023/06/27 00:17:23;;;;;;;4.95;1.40;;;14.70;99.90;;;14.17;100.00;102055.66;4185969;28;20109;-76
2023/06/27 00:19:23;;;;;;;3.47;1.60;;;14.70;99.90;;;14.05;100.00;102052.38;4184881;28;20413;-76
2023/06/27 00:21:28;;;;;;;7.13;1.67;;;14.60;99.90;;;14.03;100.00;102046.38;4185602;28;20037;-76
2023/06/27 00:23:33;;;;;;;3.67;1.70;;;14.60;99.90;;;14.05;100.00;102065.63;4196251;28;20036;-76
2023/06/27 00:25:34;;;;;;;6.28;2.25;;;14.60;99.90;;;14.04;100.00;102065.75;4185955;28;20025;-76
2023/06/27 00:27:34;;;;;;;4.63;2.00;;;14.50;99.90;;;14.02;100.00;102071.22;4185747;28;20503;-76
2023/06/27 00:29:35;;;;;;;4.93;1.80;;;14.50;99.90;;;13.98;100.00;102071.69;4167940;28;20091;-76
2023/06/27 00:31:36;;;;;;;4.35;1.88;;;14.50;99.90;;;13.97;100.00;102068.19;4167573;28;20574;-76
2023/06/27 00:33:37;;;;;;;5.32;2.13;;;14.50;99.90;;;13.95;100.00;102067.47;4168152;28;20037;-76
2023/06/27 00:35:41;;;;;;;4.05;1.33;;;14.50;99.90;;;13.92;100.00;102059.81;4185749;28;20028;-76
2023/06/27 00:37:41;;;;;;;5.55;1.80;;;14.40;99.90;;;13.87;100.00;102067.38;4185385;28;20051;-76
2023/06/27 00:39:42;;;;;;;3.58;1.63;;;14.40;99.90;;;13.81;100.00;102060.00;4151652;28;20037;-76
2023/06/27 00:41:43;;;;;;;5.57;2.15;;;14.40;99.90;;;13.86;100.00;102065.69;4173319;28;20025;-76
2023/06/27 00:43:44;;;;;;;4.30;1.63;;;14.40;99.90;;;13.82;100.00;102059.88;4185473;28;20059;-76
2023/06/27 00:45:45;;;;;;;7.22;1.85;;;14.40;99.90;;;13.81;100.00;102067.97;4167834;28;20028;-76
2023/06/27 00:47:46;;;;;;;6.35;2.40;;;14.30;99.90;;;13.64;100.00;102043.03;4167821;28;20055;-76
2023/06/27 00:49:48;;;;;;;3.85;1.60;;;14.30;99.90;;;13.78;100.00;102078.84;4185474;28;20439;-76
2023/06/27 00:51:50;;;;;;;6.60;2.00;;;14.30;99.90;;;13.79;100.00;102072.56;4167790;28;20031;-76
2023/06/27 00:53:50;;;;;;;3.67;1.58;;;14.30;99.90;;;13.78;100.00;102068.25;4200607;28;20056;-76
2023/06/27 00:55:52;;;;;;;6.03;1.67;;;14.30;99.90;;;13.77;100.00;102071.88;4185339;28;20029;-76
2023/06/27 00:57:53;;;;;;;4.35;1.65;;;14.30;99.90;;;13.67;100.00;102055.16;4200621;28;20052;-76
2023/06/27 00:59:55;;;;;;;7.00;2.00;;;14.30;99.90;;;13.71;100.00;102056.53;4167757;28;20083;-76
2023/06/27 01:01:55;;;;;;;6.72;2.22;;;14.20;99.90;;;13.69;100.00;102048.72;4185203;28;20025;-76
2023/06/27 01:03:57;;;;;;;5.38;1.50;;;14.20;99.90;;;13.71;100.00;102060.03;4200559;28;20032;-76
2023/06/27 01:06:02;;;;;;;5.15;1.55;;;14.20;99.90;;;13.69;100.00;102053.19;4185149;28;20025;-76
2023/06/27 01:08:28;;;;;;;7.75;2.38;;;14.20;99.90;;;13.64;100.00;102050.16;4185290;28;20033;-76
2023/06/27 01:11:08;;;;;;;4.43;2.00;;;14.20;99.90;;;13.64;100.00;102055.44;4168221;28;20037;-76
2023/06/27 01:13:23;;;;;;;6.35;1.65;;;14.20;99.90;;;13.62;100.00;102057.44;4199983;28;20024;-76
2023/06/27 01:15:25;;;;;;;5.30;1.80;;;14.20;99.90;;;13.60;100.00;102060.19;4185043;28;20029;-76
2023/06/27 01:17:28;;;;;;;3.05;1.58;;;14.10;99.90;;;13.63;100.00;102053.78;4184015;28;20040;-76
2023/06/27 01:19:32;;;;;;;4.00;2.08;;;14.10;99.90;;;13.51;100.00;102031.06;4167314;28;20049;-76
2023/06/27 01:21:34;;;;;;;;;;;14.10;99.90;;;13.51;100.00;102039.00;4168018;28;20052;-76
2023/06/27 01:23:51;;;;;;;4.00;1.80;;;14.10;99.90;;;13.59;100.00;102058.53;4167184;28;20360;-76
2023/06/27 01:26:05;;;;;;;5.15;1.65;;;14.10;99.90;;;13.57;100.00;102054.34;4167258;28;20412;-76
2023/06/27 01:28:13;;;;;;;4.95;2.50;;;14.10;99.90;;;13.53;100.00;102048.50;4167250;28;20049;-76
2023/06/27 01:30:17;;;;;;;5.93;1.75;;;14.10;99.90;;;13.52;100.00;102046.84;4185009;28;20509;-76
2023/06/27 01:33:07;;;;;;;5.57;2.00;;;14.10;99.90;;;13.46;100.00;102047.41;4173262;28;20033;-76
2023/06/27 01:35:22;;;;;;;8.90;2.42;;;14.00;99.90;;;13.47;100.00;102048.25;4153500;28;20033;-76
2023/06/27 01:37:31;;;;;;;7.68;2.03;;;14.00;99.90;;;13.45;100.00;102048.38;4171557;28;20178;-76
2023/06/27 01:40:07;;;;;;;4.95;2.20;;;14.00;99.90;;;13.40;100.00;102044.47;4170963;28;20091;-76
2023/06/27 01:42:22;;;;;;;6.55;2.13;;;13.90;99.90;;;13.38;100.00;102038.50;4171061;28;20452;-76
2023/06/27 01:44:26;;;;;;;7.00;1.95;;;13.90;99.90;;;13.35;100.00;102038.78;4171064;28;20483;-76
2023/06/27 01:46:27;;;;;;;3.90;1.48;;;13.90;99.90;;;13.36;100.00;102029.84;4170514;28;20022;-76
2023/06/27 01:48:28;;;;;;;5.18;1.80;;;13.90;99.90;;;13.39;100.00;102029.56;4154282;28;20033;-76
2023/06/27 01:50:29;;;;;;;5.20;1.70;;;13.90;99.90;;;13.34;100.00;102022.03;4188348;28;20021;-76
2023/06/27 01:52:30;;;;;;;5.60;2.15;;;13.90;99.90;;;13.36;100.00;102030.69;4187979;28;20036;-76
2023/06/27 01:54:31;;;;;;;6.80;2.20;;;13.90;99.90;;;13.36;100.00;102024.53;4170290;28;20496;-76
2023/06/27 01:56:32;;;;;;;5.60;1.63;;;13.90;99.90;;;13.29;100.00;102013.66;4188230;28;20067;-76
2023/06/27 01:58:32;;;;;;;3.78;1.42;;;13.90;99.90;;;13.32;100.00;102030.13;4154194;28;20026;-76
2023/06/27 02:00:33;;;;;;;4.32;1.70;;;13.80;99.90;;;13.28;100.00;102023.44;4186742;28;20502;-76
2023/06/27 02:02:34;;;;;;;6.70;1.65;;;13.80;99.90;;;13.29;100.00;102029.56;4187838;28;20032;-76
2023/06/27 02:04:35;;;;;;;4.15;2.10;;;13.80;99.90;;;13.17;100.00;102007.69;4203445;28;20590;-76
2023/06/27 02:06:36;;;;;;;7.65;2.63;;;13.80;99.90;;;13.22;100.00;102021.38;4170289;28;20041;-76
2023/06/27 02:08:37;;;;;;;7.30;2.20;;;13.80;99.90;;;13.26;100.00;102029.88;4169989;28;20033;-76
2023/06/27 02:10:38;;;;;;;5.57;2.17;;;13.80;99.90;;;13.26;100.00;102027.22;4169962;28;20095;-76
2023/06/27 02:12:39;;;;;;;6.28;2.05;;;13.80;99.90;;;13.27;100.00;102011.16;4186696;28;20037;-76
2023/06/27 02:14:40;;;;;;;5.45;2.30;;;13.80;99.90;;;13.30;100.00;102010.88;4170121;28;20057;-76
2023/06/27 02:16:40;;;;;;;6.97;1.90;;;13.80;99.90;;;13.35;100.00;102022.88;4170090;28;20572;-76
2023/06/27 02:18:41;;;;;;;4.28;1.95;;;13.80;99.90;;;13.31;100.00;102014.38;4187486;28;20053;-76
2023/06/27 02:20:42;;;;;;;8.23;1.88;;;13.80;99.90;;;13.29;100.00;102022.44;4187930;28;20099;-76
2023/06/27 02:22:43;;;;;;;5.88;1.98;;;13.80;99.90;;;13.27;100.00;102007.69;4187376;28;20032;-76
2023/06/27 02:24:44;;;;;;;7.35;2.33;;;13.80;99.90;;;13.25;100.00;102012.28;4170045;28;20026;-76
2023/06/27 02:26:45;;;;;;;9.18;2.50;;;13.80;99.90;;;13.25;100.00;102015.78;4187606;28;20113;-76
2023/06/27 02:28:46;;;;;;;7.88;1.90;;;13.80;99.90;;;13.24;100.00;102007.97;4187665;28;20024;-76
2023/06/27 02:30:47;;;;;;;4.47;1.83;;;13.80;99.90;;;13.11;100.00;101992.34;4169473;28;20757;-76
2023/06/27 02:32:48;;;;;;;2.95;1.60;;;13.80;99.90;;;13.24;100.00;102010.63;4187562;28;20029;-76
2023/06/27 02:34:49;;;;;;;4.40;1.70;;;13.80;99.90;;;13.21;100.00;102006.44;4169848;28;20029;-76
2023/06/27 02:36:50;;;;;;;5.72;2.40;;;13.80;99.90;;;13.19;100.00;102007.56;4187199;28;20115;-76
2023/06/27 02:38:54;;;;;;;5.30;1.90;;;13.70;99.90;;;13.15;100.00;102007.00;4187389;28;20385;-76
2023/06/27 02:40:55;;;;;;;;;;;13.70;99.90;;;13.05;100.00;102003.50;4187726;28;20021;-76
2023/06/27 02:42:56;;;;;;;6.45;2.28;;;13.70;99.90;;;12.99;100.00;101980.22;4186026;28;20261;-76
2023/06/27 02:44:57;;;;;;;7.03;2.35;;;13.70;99.90;;;13.06;100.00;101994.56;4187481;28;20013;-76
2023/06/27 02:46:58;;;;;;;7.75;2.17;;;13.70;99.90;;;13.09;100.00;101996.13;4169699;28;20033;-76
2023/06/27 02:48:59;;;;;;;3.92;2.03;;;13.60;99.90;;;13.06;100.00;102002.53;4169646;28;20393;-76
2023/06/27 02:50:59;;;;;;;3.78;1.83;;;13.60;99.90;;;12.95;100.00;101989.44;4185946;28;20029;-76
2023/06/27 02:53:00;;;;;;;6.65;2.60;;;13.60;99.90;;;12.96;100.00;101991.09;4169189;28;20533;-76
2023/06/27 02:55:01;;;;;;;5.68;2.08;;;13.60;99.90;;;12.96;100.00;101996.38;4169512;28;20029;-76
2023/06/27 02:57:02;;;;;;;6.30;2.13;;;13.50;99.90;;;12.98;100.00;101997.09;4169533;28;20084;-76
2023/06/27 02:59:03;;;;;;;6.00;1.88;;;13.50;99.90;;;12.97;100.00;101992.78;4187181;28;20032;-76
2023/06/27 03:01:06;;;;;;;5.05;1.85;;;13.50;99.90;;;12.90;100.00;101982.91;4185880;28;20017;-76
2023/06/27 03:03:07;;;;;;;5.25;2.08;;;13.50;99.90;;;12.96;100.00;102006.97;4169477;28;20029;-76
2023/06/27 03:05:08;;;;;;;6.65;2.38;;;13.50;99.90;;;12.93;100.00;101996.66;4187104;28;20021;-76
2023/06/27 03:07:09;;;;;;;11.02;2.42;;;13.50;99.90;;;12.87;100.00;101986.66;4184714;28;20064;-76
2023/06/27 03:09:11;;;;;;;6.35;1.92;;;13.50;99.90;;;12.91;100.00;101993.34;4186906;28;20392;-76
2023/06/27 03:11:12;;;;;;;6.28;2.15;;;13.50;99.90;;;12.96;100.00;101995.56;4187070;28;20111;-76
2023/06/27 03:13:13;;;;;;;5.85;2.28;;;13.50;99.90;;;12.91;100.00;101985.38;4186847;28;20546;-76
2023/06/27 03:15:13;;;;;;;5.65;2.10;;;13.50;99.90;;;12.91;100.00;101998.63;4169415;28;20095;-76
2023/06/27 03:17:15;;;;;;;3.28;1.45;;;13.40;99.90;;;12.74;100.00;101973.72;4168945;28;20037;-76
2023/06/27 03:19:16;;;;;;;7.00;2.58;;;13.40;99.90;;;12.83;100.00;101998.50;4169394;28;20049;-76
2023/06/27 03:21:17;;;;;;;5.88;2.03;;;13.40;99.90;;;12.84;100.00;102005.47;4169130;28;20079;-76
2023/06/27 03:23:18;;;;;;;5.60;1.70;;;13.40;99.90;;;12.85;100.00;102004.50;4186241;28;20036;-76
2023/06/27 03:25:18;;;;;;;7.65;2.75;;;13.40;99.90;;;12.84;100.00;102005.47;4169257;28;20030;-76
2023/06/27 03:27:24;;;;;;;5.28;2.15;;;13.40;99.90;;;12.84;100.00;102004.66;4186840;28;20032;-76
2023/06/27 03:29:24;;;;;;;8.15;2.30;;;13.40;99.90;;;12.85;100.00;102003.66;4169657;28;20093;-76
2023/06/27 03:31:25;;;;;;;7.03;1.83;;;13.40;99.90;;;12.80;100.00;101995.28;4186644;28;20029;-76
2023/06/27 03:33:26;;;;;;;6.93;2.40;;;13.40;99.90;;;12.80;100.00;101997.94;4168737;28;20400;-76
2023/06/27 03:35:27;;;;;;;3.80;1.80;;;13.40;99.90;;;12.77;100.00;101994.59;4168990;28;20044;-76
2023/06/27 03:37:28;;;;;;;8.05;2.15;;;13.30;99.90;;;12.71;100.00;101983.72;4168880;28;20033;-76
2023/06/27 03:39:29;;;;;;;4.03;1.80;;;13.30;99.90;;;12.76;100.00;102000.03;4168846;28;20033;-76
2023/06/27 03:41:30;;;;;;;6.47;1.92;;;13.30;99.90;;;12.74;100.00;101997.53;4168661;28;20505;-76
2023/06/27 03:43:31;;;;;;;2.92;1.80;;;13.30;99.90;;;12.73;100.00;102002.94;4168830;28;20120;-76
2023/06/27 03:45:32;;;;;;;6.63;2.20;;;13.30;99.90;;;12.66;100.00;101994.72;4186436;28;20021;-75
2023/06/27 03:47:33;;;;;;;9.93;2.33;;;13.30;99.90;;;12.55;100.00;101978.16;4168901;28;20071;-76
2023/06/27 03:49:34;;;;;;;5.05;2.20;;;13.20;99.90;;;12.63;100.00;102000.28;4186248;28;20021;-75
2023/06/27 03:51:40;;;;;;;6.72;2.55;;;13.20;99.90;;;12.63;100.00;102010.06;4186351;28;20031;-76
2023/06/27 03:53:41;;;;;;;5.70;1.80;;;13.20;99.90;;;12.61;100.00;102014.66;4201227;28;20054;-76
2023/06/27 03:55:42;;;;;;;6.25;2.20;;;13.20;99.90;;;12.57;100.00;102007.97;4186411;28;20029;-76
2023/06/27 03:57:43;;;;;;;5.88;2.50;;;13.10;99.90;;;12.54;100.00;102000.31;4186228;28;20029;-76
2023/06/27 03:59:44;;;;;;;9.20;3.15;;;13.20;99.90;;;12.60;100.00;102011.16;4168763;28;20033;-75
2023/06/27 04:01:44;;;;;;;5.03;2.05;;;13.10;99.90;;;12.52;100.00;101997.78;4185903;28;20028;-76
2023/06/27 04:03:45;;;;;;;4.63;2.15;;;13.10;99.90;;;12.58;100.00;102014.94;4201498;28;20146;-75
2023/06/27 04:05:47;;;;;;;5.38;2.05;;;13.10;99.90;;;12.51;100.00;102000.59;4186002;28;20029;-76
2023/06/27 04:07:48;;;;;;;5.50;2.45;;;13.10;99.90;;;12.55;100.00;102004.63;4168210;28;20028;-76
2023/06/27 04:09:48;;;;;;;6.75;2.70;;;13.10;99.90;;;12.58;100.00;102012.28;4168513;28;20428;-76
2023/06/27 04:11:49;;;;;;;7.50;2.17;;;13.10;99.90;;;12.53;100.00;102009.22;4185946;28;20111;-76
2023/06/27 04:13:51;;;;;;;5.18;2.30;;;13.10;99.90;;;12.56;100.00;102019.53;4185846;28;20025;-75
2023/06/27 04:15:52;;;;;;;7.03;2.40;;;13.10;99.90;;;12.58;100.00;102017.56;4186234;28;20056;-76
2023/06/27 04:17:52;;;;;;;7.10;2.10;;;13.10;99.90;;;12.57;100.00;102015.91;4185882;28;20025;-75
2023/06/27 04:19:53;;;;;;;9.25;2.53;;;13.10;99.90;;;12.60;100.00;102010.34;4185669;28;20424;-76
2023/06/27 04:21:54;;;;;;;9.38;3.08;;;13.20;99.90;;;12.63;100.00;102016.19;4185525;28;20025;-76
2023/06/27 04:23:56;;;;;;;6.65;2.53;;;13.20;99.90;;;12.65;100.00;102016.06;4185756;28;20029;-76
2023/06/27 04:26:07;;;;;;;7.47;2.50;;;13.20;99.90;;;12.65;100.00;102018.69;4185943;28;20029;-75
2023/06/27 04:28:08;;;;;;;5.75;2.15;;;13.20;99.90;;;12.64;100.00;102015.22;4169177;28;20394;-76
2023/06/27 04:30:10;;;;;;;8.95;2.65;;;13.20;99.90;;;12.63;100.00;102010.06;4185610;28;20086;-76
2023/06/27 04:32:11;;;;;;;7.95;3.00;;;13.20;99.90;;;12.65;100.00;102002.81;4185855;28;20025;-76
2023/06/27 04:34:12;;;;;;;10.57;2.35;;;13.20;99.90;;;12.66;100.00;101999.22;4168040;28;20025;-76
2023/06/27 04:36:15;;;;;;;5.45;2.72;;;13.20;99.90;;;12.73;100.00;102006.44;4168291;28;20029;-76
2023/06/27 04:38:16;;;;;;;6.63;2.47;;;13.20;99.90;;;12.80;100.00;102005.88;4167842;28;20029;-75
2023/06/27 04:40:17;;;;;;;8.68;2.63;;;13.30;99.90;;;12.75;100.00;101993.09;4167517;28;20497;-76
2023/06/27 04:42:18;;;;;;;6.57;2.15;;;13.30;99.90;;;12.87;100.00;101994.59;4185263;28;20029;-75
2023/06/27 04:44:20;;;;;;;6.57;2.55;;;13.40;99.90;;;12.93;100.00;102001.97;4167880;28;20029;-76
2023/06/27 04:46:21;;;;;;;8.27;2.70;;;13.40;99.90;;;12.97;100.00;102002.53;4185424;28;20028;-76
2023/06/27 04:48:22;;;;;;;8.70;3.20;;;13.50;99.90;;;12.98;100.00;101989.16;4185521;28;20408;-76
2023/06/27 04:50:23;;;;;;;8.82;2.92;;;13.50;99.90;;;13.00;100.00;101976.59;4185545;28;20024;-76
2023/06/27 04:52:24;;;;;;;9.63;3.13;;;13.60;99.90;;;13.15;100.00;101985.81;4167676;28;20018;-76
2023/06/27 04:54:25;;;;;;;5.10;2.72;;;13.70;99.90;;;13.19;100.00;101981.06;4185325;28;20103;-75
2023/06/27 04:56:27;;;;;;;9.18;3.33;;;13.70;99.90;;;13.23;100.00;101983.28;4167876;28;20033;-76
2023/06/27 04:58:28;;;;;;;7.20;2.60;;;13.80;99.90;;;13.32;100.00;101992.19;4167726;28;20022;-76
2023/06/27 05:00:29;;;;;;;9.40;2.70;;;13.80;99.90;;;13.35;100.00;101997.19;4185449;28;20109;-76
2023/06/27 05:02:30;;;;;;;6.05;2.53;;;13.80;99.90;;;13.39;100.00;102000.41;4185421;28;20056;-76
2023/06/27 05:04:30;;;;;;;6.25;2.45;;;13.90;99.90;;;13.42;100.00;101986.84;4185285;28;20044;-76
2023/06/27 05:06:34;;;;;;;4.82;2.42;;;13.90;99.90;;;13.42;100.00;101993.00;4167173;28;20052;-76
2023/06/27 05:08:37;;;;;;;6.88;2.53;;;13.90;99.90;;;13.53;100.00;102005.25;4167425;28;20056;-76
2023/06/27 05:10:37;;;;;;;7.35;2.50;;;14.00;99.90;;;13.60;100.00;102006.34;4185072;28;20029;-76
2023/06/27 05:12:38;;;;;;;6.50;3.30;;;14.10;99.90;;;13.69;100.00;102002.81;4185288;28;20381;-76
2023/06/27 05:14:39;;;;;;;7.70;2.60;;;14.10;99.90;;;13.76;100.00;102002.09;4185212;28;20029;-76
2023/06/27 05:16:40;;;;;;;5.78;2.45;;;14.20;99.90;;;13.82;100.00;102005.97;4185378;28;20472;-76
2023/06/27 05:18:41;;;;;;;7.82;2.60;;;14.30;99.90;;;13.88;100.00;102002.75;4184842;28;20130;-76
2023/06/27 05:20:47;;;;;;;6.13;2.38;;;14.30;99.90;;;13.94;100.00;101996.84;4185242;28;20033;-76
2023/06/27 05:22:48;;;;;;;7.25;2.60;;;14.40;99.90;;;14.04;100.00;102013.53;4167249;28;20366;-76
2023/06/27 05:24:49;;;;;;;9.57;2.60;;;14.50;99.90;;;14.10;100.00;102012.09;4185316;28;20036;-76
2023/06/27 05:26:49;;;;;;;8.98;2.50;;;14.60;99.90;;;14.16;100.00;102003.56;4167492;28;20576;-76
2023/06/27 05:28:50;;;;;;;6.55;2.33;;;14.60;99.90;;;14.27;100.00;102009.53;4167522;28;20026;-76
2023/06/27 05:30:51;;;;;;;5.32;2.35;;;14.70;99.90;;;14.34;100.00;102010.59;4167496;28;20021;-76
2023/06/27 05:32:52;;;;;;;5.03;2.30;;;14.70;99.90;;;14.43;100.00;102016.00;4185004;28;20024;-76
2023/06/27 05:34:54;;;;;;;6.55;2.30;;;14.80;99.90;;;14.47;100.00;102007.59;4183595;28;20077;-76
2023/06/27 05:36:55;;;;;;;5.53;2.90;;;14.90;99.90;;;14.56;100.00;102013.81;4150990;28;20032;-76
2023/06/27 05:38:56;;;;;;;6.18;2.30;;;14.90;99.90;;;14.64;100.00;102016.53;4185032;28;20025;-76
2023/06/27 05:40:57;;;;;;;8.05;2.80;;;15.00;99.90;;;14.64;100.00;102014.72;4185014;28;20025;-76
2023/06/27 05:42:58;;;;;;;3.17;2.20;;;15.00;99.90;;;14.67;100.00;101992.34;4184775;28;20556;-76
2023/06/27 05:44:59;;;;;;;10.93;2.70;;;15.20;99.90;;;14.85;100.00;102011.75;4185081;28;20048;-76
2023/06/27 05:47:00;;;;;;;5.40;2.42;;;15.20;99.90;;;14.89;100.00;102005.16;4150978;28;20053;-76
2023/06/27 05:49:02;;;;;;;4.13;2.22;;;15.30;99.90;;;15.07;100.00;102010.47;4184778;28;20028;-76
2023/06/27 05:51:03;;;;;;;5.13;2.53;;;15.40;99.90;;;15.14;100.00;102014.19;4167306;28;20014;-76
2023/06/27 05:53:04;;;;;;;9.27;3.05;;;15.50;99.90;;;15.23;100.00;102015.91;4167104;28;20033;-76
2023/06/27 05:55:06;;;;;;;7.95;2.42;;;15.50;99.90;;;15.31;100.00;102006.16;4183537;28;20017;-76
2023/06/27 05:57:07;;;;;;;6.32;3.10;;;15.60;99.90;;;15.32;100.00;102007.81;4184810;28;20025;-76
2023/06/27 05:59:08;;;;;;;4.35;2.20;;;15.70;99.90;;;15.44;100.00;102009.22;4185035;28;20025;-76
2023/06/27 06:01:09;;;;;;;6.68;2.13;;;15.80;99.90;;;15.54;100.00;102013.63;4184663;28;20029;-76
2023/06/27 06:03:10;;;;;;;7.20;2.35;;;15.90;99.90;;;15.65;100.00;102016.03;4167067;28;20033;-76
2023/06/27 06:05:11;;;;;;;5.00;2.20;;;15.90;99.90;;;15.76;100.00;102013.09;4200367;28;20147;-76
2023/06/27 06:07:12;;;;;;;6.15;2.30;;;16.00;99.90;;;15.80;100.00;102003.81;4167118;28;20091;-76
2023/06/27 06:09:13;;;;;;;6.57;2.47;;;16.10;99.90;;;15.92;100.00;102007.84;4167020;28;20021;-76
2023/06/27 06:11:13;;;;;;;7.57;2.30;;;16.20;99.90;;;16.01;100.00;102009.53;4184850;28;20048;-76
2023/06/27 06:13:14;;;;;;;7.47;3.10;;;16.30;99.90;;;16.05;100.00;102010.91;4184439;28;20492;-76
2023/06/27 06:15:15;;;;;;;4.25;2.20;;;16.40;99.90;;;16.09;100.00;102004.28;4184707;28;20039;-76
2023/06/27 06:17:16;;;;;;;8.50;2.47;;;16.40;99.90;;;16.13;100.00;102005.59;4185765;28;20444;-76
2023/06/27 06:19:17;;;;;;;10.75;2.85;;;16.50;99.90;;;16.20;100.00;102011.94;4170060;28;20056;-76
2023/06/27 06:21:18;;;;;;;9.05;2.40;;;16.50;99.90;;;16.22;100.00;101995.84;4187788;28;20503;-76
2023/06/27 06:23:19;;;;;;;6.13;2.78;;;16.60;99.90;;;16.37;100.00;102013.66;4169695;28;20026;-76
2023/06/27 06:25:20;;;;;;;6.60;2.45;;;16.60;99.90;;;16.41;100.00;102006.19;4187582;28;20028;-76
2023/06/27 06:27:20;;;;;;;8.45;2.55;;;16.80;99.90;;;16.47;100.00;102009.03;4170084;28;20026;-76
2023/06/27 06:29:21;;;;;;;6.55;2.45;;;16.80;99.90;;;16.50;100.00;102011.38;4153505;28;20509;-76
2023/06/27 06:31:24;;;;;;;7.03;2.55;;;16.80;99.90;;;16.58;100.00;102011.41;4169903;28;20485;-76
2023/06/27 06:33:26;;;;;;;4.72;2.22;;;16.90;99.90;;;16.66;100.00;102013.25;4170189;28;20033;-76
2023/06/27 06:35:27;;;;;;;6.15;2.75;;;17.00;99.90;;;16.72;100.00;102020.59;4187812;28;20040;-76
2023/06/27 06:37:27;;;;;;;7.15;2.65;;;17.00;99.90;;;16.77;100.00;102015.59;4187520;28;20025;-76
2023/06/27 06:39:28;;;;;;;7.78;2.78;;;17.10;99.90;;;16.87;100.00;102015.44;4186183;28;20039;-76
2023/06/27 06:41:29;;;;;;;8.98;3.08;;;17.20;99.90;;;16.92;100.00;102021.09;4169828;28;20037;-76
2023/06/27 06:43:30;;;;;;;6.85;2.60;;;17.20;99.90;;;16.80;100.00;102003.78;4187596;28;20546;-76
2023/06/27 06:45:31;;;;;;;12.77;3.05;;;17.30;99.90;;;16.84;100.00;102005.13;4187409;28;20028;-76
2023/06/27 06:47:32;;;;;;;5.55;2.95;;;17.30;99.90;;;16.82;100.00;102001.75;4169709;28;20018;-76
2023/06/27 06:49:33;;;;;;;7.57;2.90;;;17.30;99.90;;;16.92;100.00;102007.78;4153334;28;20092;-76
2023/06/27 06:51:33;;;;;;;11.18;3.08;;;17.40;99.90;;;17.06;100.00;102015.09;4169720;28;20041;-76
2023/06/27 06:53:35;;;;;;;6.32;3.08;;;17.40;99.90;;;17.20;100.00;102011.78;4187256;28;20033;-76
2023/06/27 06:55:36;;;;;;;8.10;2.60;;;17.50;99.90;;;17.39;100.00;102011.41;4169725;28;20030;-76
2023/06/27 06:57:37;;;;;;;8.32;3.28;;;17.60;99.90;;;17.64;100.00;102021.06;4152997;28;20583;-76
2023/06/27 06:59:38;;;;;;;10.82;3.28;;;17.80;99.90;;;17.81;100.00;102016.50;4187260;28;20120;-76
2023/06/27 07:01:39;;;;;;;7.55;3.22;;;18.00;99.90;;;18.02;100.00;102014.06;4187179;28;20017;-76
2023/06/27 07:03:39;;;;;;;10.90;2.83;;;18.20;99.90;;;18.31;100.00;102013.41;4186989;28;20033;-76
2023/06/27 07:05:41;;;;;;;6.55;2.20;;;18.40;99.90;;;18.39;100.00;102015.22;4202618;28;20434;-76
2023/06/27 07:07:42;;;;;;;5.25;2.40;;;18.50;99.90;;;18.56;100.00;102011.47;4186907;28;20099;-76
2023/06/27 07:09:43;;;;;;;3.63;1.80;;;18.70;99.90;;;18.75;100.00;102022.53;4186890;28;20029;-76
2023/06/27 07:11:44;;;;;;;7.68;2.70;;;18.90;99.90;;;18.98;100.00;102019.00;4186935;28;20029;-76
2023/06/27 07:13:45;;;;;;;6.32;2.50;;;19.10;99.90;;;19.04;100.00;102020.97;4152830;28;20029;-76
2023/06/27 07:15:46;;;;;;;6.70;3.22;;;19.20;99.90;;;19.14;100.00;102018.88;4187106;28;20040;-76
2023/06/27 07:17:46;;;;;;;11.55;3.13;;;19.20;99.90;;;19.08;100.00;102015.09;4171997;28;20025;-76
2023/06/27 07:19:48;;;;;;;12.13;2.35;;;19.30;99.90;;;19.23;100.00;102025.81;4186604;28;20045;-76
2023/06/27 07:21:48;;;;;;;7.03;2.53;;;19.40;99.90;;;19.37;100.00;102018.81;4168610;28;20540;-76
2023/06/27 07:23:51;;;;;;;4.47;1.60;;;19.50;99.90;;;19.44;100.00;102028.66;4168915;28;20037;-76
2023/06/27 07:25:52;;;;;;;7.70;2.15;;;19.60;99.90;;;19.31;100.00;102010.53;4177387;28;20047;-76
2023/06/27 07:27:52;;;;;;;9.10;1.95;;;19.60;99.90;;;19.53;99.15;102026.72;4186753;28;20025;-76
2023/06/27 07:29:53;;;;;;;6.35;2.92;;;19.70;99.90;;;19.65;97.72;102023.38;4185994;28;20396;-76
2023/06/27 07:31:54;;;;;;;6.38;2.05;;;19.90;99.90;;;19.74;97.32;102022.28;4186721;28;20040;-76
2023/06/27 07:33:55;;;;;;;6.43;2.17;;;20.00;99.90;;;19.63;96.15;102019.25;4169024;28;20026;-76
2023/06/27 07:35:56;;;;;;;6.82;2.40;;;20.00;99.90;;;19.70;96.46;102022.84;4152651;28;20201;-76
2023/06/27 07:37:57;;;;;;;9.80;3.00;;;20.10;99.90;;;19.68;96.22;102017.66;4168665;28;20026;-76
2023/06/27 07:39:58;;;;;;;7.43;2.75;;;20.10;99.90;;;19.72;97.21;102023.50;4168801;28;20400;-76
2023/06/27 07:41:59;;;;;;;8.32;2.33;;;20.10;99.90;;;19.64;97.22;102019.06;4186551;28;20024;-76
2023/06/27 07:44:00;;;;;;;5.70;2.20;;;20.10;99.90;;;19.61;98.71;102022.13;4186413;28;20040;-76
2023/06/27 07:46:01;;;;;;;7.43;1.80;;;20.00;99.90;;;19.60;98.63;102024.97;4168699;28;20049;-76
2023/06/27 07:48:02;;;;;;;6.95;2.10;;;20.00;99.90;;;19.50;98.60;102033.28;4186447;28;20425;-76
2023/06/27 07:50:03;;;;;;;8.50;2.10;;;19.90;99.90;;;19.47;99.27;102033.66;4186392;28;20035;-76
2023/06/27 07:52:07;;;;;;;7.05;1.90;;;19.80;99.90;;;19.44;99.22;102033.19;4186232;28;20480;-76
2023/06/27 07:54:09;;;;;;;5.53;1.85;;;19.80;99.90;;;19.41;99.46;102037.06;4168430;28;20025;-76
2023/06/27 07:56:10;;;;;;;6.03;2.42;;;19.70;99.90;;;19.43;99.72;102029.66;4186192;28;20507;-76
2023/06/27 07:58:11;;;;;;;6.00;1.90;;;19.70;99.90;;;19.47;99.00;102001.53;4168541;28;20029;-76
2023/06/27 08:00:12;;;;;;;6.07;2.03;;;19.80;99.90;;;19.80;98.90;102029.56;4186154;28;20033;-76
2023/06/27 08:02:13;;;;;;;5.20;1.30;;;19.90;99.90;;;19.97;97.78;102026.72;4186239;28;20029;-76
2023/06/27 08:04:17;;;;;;;8.65;2.00;;;20.00;99.90;;;20.11;95.70;102028.53;4185745;28;20037;-76
2023/06/27 08:06:18;;;;;;;;;;;20.10;99.90;;;20.10;94.30;102026.91;4186525;28;20026;-76
2023/06/27 08:08:19;;;;;;;8.75;1.98;;;20.20;99.90;;;20.08;94.32;102021.72;4185813;28;19953;-76
2023/06/27 08:10:20;;;;;;;7.57;1.92;;;20.30;99.90;;;20.26;94.99;102029.38;4152034;28;20129;-76
2023/06/27 08:12:21;;;;;;;6.53;1.80;;;20.30;99.90;;;20.44;92.28;102021.75;4185798;28;20089;-76
2023/06/27 08:14:22;;;;;;;6.47;1.90;;;20.50;99.90;;;20.62;90.99;102024.84;4168258;28;20045;-76
2023/06/27 08:16:22;;;;;;;5.97;1.65;;;20.70;99.90;;;20.72;89.04;102036.09;4151693;28;20153;-76
2023/06/27 08:18:23;;;;;;;8.35;2.05;;;20.90;99.90;;;20.67;88.13;102032.34;4168006;28;20025;-76
2023/06/27 08:20:24;;;;;;;6.75;1.42;;;20.90;99.90;;;20.57;88.03;102026.44;4185658;28;20061;-76
2023/06/27 08:22:25;;;;;;;7.07;1.75;;;20.90;99.90;;;20.58;87.22;102022.75;4185482;28;20021;-76
2023/06/27 08:24:26;;;;;;;6.72;1.90;;;20.90;99.90;;;20.66;87.46;102027.97;4184379;28;20037;-76